Main page
METAR-TAF:

METAR-TAF

Airports :

Cranfield, England

Cranfield Airport

latitude: 52-04N, longitude: 000-37W, elevation: 111 m

Current weather observation

The report was made 10 minutes ago, at 13:20 UTC
Wind 16 kt from the West, varying between West/Southwest and Northwest
Temperature 13°C
Humidity 58%
Pressure 1012 hPa
Visibility 10 km or more
Scattered clouds at a height of 4800 ft

METAR: EGTC 221320Z 28016KT 250V320 9999 SCT048 13/05 Q1012

Time: 14:30 (13:30 UTC)

Forecast

The report was made 2 hours and 32 minutes ago, at 10:58 UTC
Forecast valid from 22 at 12 UTC to 22 at 17 UTC
Wind 15 kt from the West
Visibility 10 km or more
Scattered clouds at a height of 2500 ft
Temporary
from 22 at 12 UTC to 22 at 17 UTC
Wind 18 kt from the West with gusts up to 28 kt

TAF: EGTC 221058Z 2212/2217 26015KT 9999 SCT025 TEMPO 2212/2217 27018G28KT

Weather observations and forecasts of more than 4000 airports (METAR and TAF reports).

The available stations are represented by yellow and red dots on the map.

Hover mouse over dot to see the name of the station.

Then click to see weather observations and forecasts.

To change the map : click on the green buttons with a black cross to zoom in, on the green button with a dash to zoom out, or on the green arrows for adjacent maps.


METAR-TAF: